Airport View

Enter AWOS ICAO identifier for current METAR.

ex. KFNL

KAFF 202358Z AUTO 20020G26KT 10SM CLR 25/M11 A2987 RMK AO2 PK WND 21028/46 SLP030 60000 T02541113 10277 20248 55001

21 Sep 2019 00:24

Other Area AWOS: KCOS - KFLY - KFCS - KMNH

TAF AMD KAFF 202057Z 2020/2201 17015G25KT 9999 SCT080 520002 QNH2986INS WND 100V220 ROTOR CONDS EXIST TEMPO 2021/2023 22025G35KT BECMG 2102/2103 VRB06KT 9999 SKC 530209 QNH2990INS ROTOR CONDS EXIST BECMG 2111/2112 01009KT 9999 SKC 520208 QNH2997INS WND 270V060 ROTOR CONDS EXIST TEMPO 2016/2018 27010G16KT 520009 BECMG 2117/2118 17012G18KT 9999 SKC 510009 QNH2995INS BECMG 2201/2202 36005KT 9999 SKC QNH2994INS TX27/2021Z TN07/2112Z LAST NO AMDS AFT 2021 NEXT 2111